sensor_id;sensor_type;location;lat;lon;timestamp;temperature;humidity
37408;DHT22;24866;50.248;8.252;2023-03-12T00:00:38;-1.20;99.90
37408;DHT22;24866;50.248;8.252;2023-03-12T00:03:09;-1.10;1.00
37408;DHT22;24866;50.248;8.252;2023-03-12T00:05:40;-1.00;1.00
37408;DHT22;24866;50.248;8.252;2023-03-12T00:08:12;-1.00;1.00
37408;DHT22;24866;50.248;8.252;2023-03-12T00:10:44;-1.00;1.00
37408;DHT22;24866;50.248;8.252;2023-03-12T00:13:14;-1.10;1.00
37408;DHT22;24866;50.248;8.252;2023-03-12T00:15:45;-1.00;1.00
37408;DHT22;24866;50.248;8.252;2023-03-12T00:18:15;-1.20;99.90
37408;DHT22;24866;50.248;8.252;2023-03-12T00:20:52;-1.20;99.90
37408;DHT22;24866;50.248;8.252;2023-03-12T00:23:24;-1.20;99.90
37408;DHT22;24866;50.248;8.252;2023-03-12T00:25:59;-1.20;1.00
37408;DHT22;24866;50.248;8.252;2023-03-12T00:28:30;-1.00;1.00
37408;DHT22;24866;50.248;8.252;2023-03-12T00:31:00;-1.10;1.00
37408;DHT22;24866;50.248;8.252;2023-03-12T00:33:30;-1.10;99.90
37408;DHT22;24866;50.248;8.252;2023-03-12T00:36:02;-1.00;88.00
37408;DHT22;24866;50.248;8.252;2023-03-12T00:38:32;-1.10;54.20
37408;DHT22;24866;50.248;8.252;2023-03-12T00:41:04;-1.00;99.90
37408;DHT22;24866;50.248;8.252;2023-03-12T00:43:34;-1.00;1.00
37408;DHT22;24866;50.248;8.252;2023-03-12T00:46:04;-1.00;1.00
37408;DHT22;24866;50.248;8.252;2023-03-12T00:48:34;-1.00;1.00
37408;DHT22;24866;50.248;8.252;2023-03-12T00:51:05;-1.10;41.20
37408;DHT22;24866;50.248;8.252;2023-03-12T00:53:35;-1.10;99.90
37408;DHT22;24866;50.248;8.252;2023-03-12T00:56:07;-1.00;99.90
37408;DHT22;24866;50.248;8.252;2023-03-12T00:58:37;-0.90;99.90
37408;DHT22;24866;50.248;8.252;2023-03-12T01:01:09;-0.90;99.90
37408;DHT22;24866;50.248;8.252;2023-03-12T01:03:39;-0.80;99.90
37408;DHT22;24866;50.248;8.252;2023-03-12T01:06:09;-0.70;39.00
37408;DHT22;24866;50.248;8.252;2023-03-12T01:08:39;-0.70;1.00
37408;DHT22;24866;50.248;8.252;2023-03-12T01:11:13;-0.60;1.00
37408;DHT22;24866;50.248;8.252;2023-03-12T01:13:43;-0.60;1.00
37408;DHT22;24866;50.248;8.252;2023-03-12T01:16:14;-0.60;1.00
37408;DHT22;24866;50.248;8.252;2023-03-12T01:18:44;-0.60;1.00
37408;DHT22;24866;50.248;8.252;2023-03-12T01:21:13;-0.60;1.00
37408;DHT22;24866;50.248;8.252;2023-03-12T01:23:43;-0.60;99.90
37408;DHT22;24866;50.248;8.252;2023-03-12T01:26:15;-0.60;99.90
37408;DHT22;24866;50.248;8.252;2023-03-12T01:28:45;-0.50;99.90
37408;DHT22;24866;50.248;8.252;2023-03-12T01:31:17;-0.50;99.90
37408;DHT22;24866;50.248;8.252;2023-03-12T01:33:48;-0.40;66.10
37408;DHT22;24866;50.248;8.252;2023-03-12T01:36:20;-0.40;69.20
37408;DHT22;24866;50.248;8.252;2023-03-12T01:38:51;-0.40;64.50
37408;DHT22;24866;50.248;8.252;2023-03-12T01:41:24;-0.40;31.90
37408;DHT22;24866;50.248;8.252;2023-03-12T01:43:54;-0.40;1.00
37408;DHT22;24866;50.248;8.252;2023-03-12T01:46:29;-0.30;1.00
37408;DHT22;24866;50.248;8.252;2023-03-12T01:49:04;-0.30;1.00
37408;DHT22;24866;50.248;8.252;2023-03-12T01:51:39;-0.20;99.90
37408;DHT22;24866;50.248;8.252;2023-03-12T01:54:14;-0.20;99.90
37408;DHT22;24866;50.248;8.252;2023-03-12T01:56:49;-0.20;99.90
37408;DHT22;24866;50.248;8.252;2023-03-12T01:59:21;-0.20;99.90
37408;DHT22;24866;50.248;8.252;2023-03-12T02:01:52;-0.10;91.50
37408;DHT22;24866;50.248;8.252;2023-03-12T02:04:24;-0.10;1.00
37408;DHT22;24866;50.248;8.252;2023-03-12T02:07:00;-0.10;1.00
37408;DHT22;24866;50.248;8.252;2023-03-12T02:09:32;-0.10;1.00
37408;DHT22;24866;50.248;8.252;2023-03-12T02:12:05;0.00;1.00
37408;DHT22;24866;50.248;8.252;2023-03-12T02:14:36;0.00;1.00
37408;DHT22;24866;50.248;8.252;2023-03-12T02:17:07;0.00;1.00
37408;DHT22;24866;50.248;8.252;2023-03-12T02:19:42;0.00;1.00
37408;DHT22;24866;50.248;8.252;2023-03-12T02:22:13;0.00;1.00
37408;DHT22;24866;50.248;8.252;2023-03-12T02:24:45;0.10;1.00
37408;DHT22;24866;50.248;8.252;2023-03-12T02:27:18;0.00;1.00
37408;DHT22;24866;50.248;8.252;2023-03-12T02:29:50;0.10;1.00
37408;DHT22;24866;50.248;8.252;2023-03-12T02:32:23;0.10;1.00
37408;DHT22;24866;50.248;8.252;2023-03-12T02:34:55;0.10;1.00
37408;DHT22;24866;50.248;8.252;2023-03-12T02:37:25;0.10;99.90
37408;DHT22;24866;50.248;8.252;2023-03-12T02:39:59;0.10;99.90
37408;DHT22;24866;50.248;8.252;2023-03-12T02:42:35;0.10;99.90
37408;DHT22;24866;50.248;8.252;2023-03-12T02:45:09;0.20;99.90
37408;DHT22;24866;50.248;8.252;2023-03-12T02:47:39;0.10;99.90
37408;DHT22;24866;50.248;8.252;2023-03-12T02:50:10;0.20;99.90
37408;DHT22;24866;50.248;8.252;2023-03-12T02:52:40;0.20;99.90
37408;DHT22;24866;50.248;8.252;2023-03-12T02:55:10;0.20;99.90
37408;DHT22;24866;50.248;8.252;2023-03-12T02:57:41;0.20;99.90
37408;DHT22;24866;50.248;8.252;2023-03-12T03:00:12;0.20;99.90
37408;DHT22;24866;50.248;8.252;2023-03-12T03:02:43;0.20;99.90
37408;DHT22;24866;50.248;8.252;2023-03-12T03:05:13;0.20;99.90
37408;DHT22;24866;50.248;8.252;2023-03-12T03:07:43;0.20;99.90
37408;DHT22;24866;50.248;8.252;2023-03-12T03:10:14;0.20;99.90
37408;DHT22;24866;50.248;8.252;2023-03-12T03:12:46;0.20;99.90
37408;DHT22;24866;50.248;8.252;2023-03-12T03:15:17;0.30;99.90
37408;DHT22;24866;50.248;8.252;2023-03-12T03:17:47;0.20;99.90
37408;DHT22;24866;50.248;8.252;2023-03-12T03:20:17;0.20;99.90
37408;DHT22;24866;50.248;8.252;2023-03-12T03:22:47;0.20;99.90
37408;DHT22;24866;50.248;8.252;2023-03-12T03:25:17;0.20;99.90
37408;DHT22;24866;50.248;8.252;2023-03-12T03:27:51;0.20;99.90
37408;DHT22;24866;50.248;8.252;2023-03-12T03:30:22;0.30;99.90
37408;DHT22;24866;50.248;8.252;2023-03-12T03:32:51;0.30;63.90
37408;DHT22;24866;50.248;8.252;2023-03-12T03:35:21;0.30;91.50
37408;DHT22;24866;50.248;8.252;2023-03-12T03:37:51;0.40;74.20
37408;DHT22;24866;50.248;8.252;2023-03-12T03:40:24;0.40;76.50
37408;DHT22;24866;50.248;8.252;2023-03-12T03:42:58;0.40;95.50
37408;DHT22;24866;50.248;8.252;2023-03-12T03:45:28;0.40;99.90
37408;DHT22;24866;50.248;8.252;2023-03-12T03:47:58;0.30;99.90
37408;DHT22;24866;50.248;8.252;2023-03-12T03:50:28;0.40;99.90
37408;DHT22;24866;50.248;8.252;2023-03-12T03:52:58;0.40;99.90
37408;DHT22;24866;50.248;8.252;2023-03-12T03:55:28;0.50;94.70
37408;DHT22;24866;50.248;8.252;2023-03-12T03:58:00;0.50;99.90
37408;DHT22;24866;50.248;8.252;2023-03-12T04:00:30;0.50;97.50
37408;DHT22;24866;50.248;8.252;2023-03-12T04:03:00;0.50;37.20
37408;DHT22;24866;50.248;8.252;2023-03-12T04:05:31;0.50;60.50
37408;DHT22;24866;50.248;8.252;2023-03-12T04:08:01;0.50;99.90
37408;DHT22;24866;50.248;8.252;2023-03-12T04:10:34;0.50;89.70
37408;DHT22;24866;50.248;8.252;2023-03-12T04:13:05;0.60;1.00
37408;DHT22;24866;50.248;8.252;2023-03-12T04:15:35;0.60;1.00
37408;DHT22;24866;50.248;8.252;2023-03-12T04:18:05;0.60;1.00
37408;DHT22;24866;50.248;8.252;2023-03-12T04:20:35;0.50;11.40
37408;DHT22;24866;50.248;8.252;2023-03-12T04:23:05;0.50;1.00
37408;DHT22;24866;50.248;8.252;2023-03-12T04:25:35;0.50;48.10
37408;DHT22;24866;50.248;8.252;2023-03-12T04:28:07;0.60;84.90
37408;DHT22;24866;50.248;8.252;2023-03-12T04:30:37;0.60;92.10
37408;DHT22;24866;50.248;8.252;2023-03-12T04:33:07;0.50;74.20
37408;DHT22;24866;50.248;8.252;2023-03-12T04:35:37;0.60;58.80
37408;DHT22;24866;50.248;8.252;2023-03-12T04:38:07;0.60;71.90
37408;DHT22;24866;50.248;8.252;2023-03-12T04:40:38;0.60;27.20
37408;DHT22;24866;50.248;8.252;2023-03-12T04:43:12;0.60;19.50
37408;DHT22;24866;50.248;8.252;2023-03-12T04:45:42;0.60;78.50
37408;DHT22;24866;50.248;8.252;2023-03-12T04:48:12;0.60;55.80
37408;DHT22;24866;50.248;8.252;2023-03-12T04:50:42;0.60;77.50
37408;DHT22;24866;50.248;8.252;2023-03-12T04:53:12;0.60;70.70
37408;DHT22;24866;50.248;8.252;2023-03-12T04:55:42;0.70;32.10
37408;DHT22;24866;50.248;8.252;2023-03-12T04:58:14;0.70;32.70
37408;DHT22;24866;50.248;8.252;2023-03-12T05:00:44;0.70;29.60
37408;DHT22;24866;50.248;8.252;2023-03-12T05:03:15;0.70;50.20
37408;DHT22;24866;50.248;8.252;2023-03-12T05:05:46;0.80;1.00
37408;DHT22;24866;50.248;8.252;2023-03-12T05:08:16;0.80;1.00
37408;DHT22;24866;50.248;8.252;2023-03-12T05:10:45;0.80;1.00
37408;DHT22;24866;50.248;8.252;2023-03-12T05:13:18;0.80;1.00
37408;DHT22;24866;50.248;8.252;2023-03-12T05:15:48;0.80;1.00
37408;DHT22;24866;50.248;8.252;2023-03-12T05:18:22;0.80;1.00
37408;DHT22;24866;50.248;8.252;2023-03-12T05:20:58;0.80;1.00
37408;DHT22;24866;50.248;8.252;2023-03-12T05:23:29;0.70;1.00
37408;DHT22;24866;50.248;8.252;2023-03-12T05:25:59;0.70;1.00
37408;DHT22;24866;50.248;8.252;2023-03-12T05:28:32;0.70;1.00
37408;DHT22;24866;50.248;8.252;2023-03-12T05:31:08;0.70;1.00
37408;DHT22;24866;50.248;8.252;2023-03-12T05:33:38;0.60;1.00
37408;DHT22;24866;50.248;8.252;2023-03-12T05:36:09;0.60;1.00
37408;DHT22;24866;50.248;8.252;2023-03-12T05:38:39;0.60;1.00
37408;DHT22;24866;50.248;8.252;2023-03-12T05:41:17;0.60;1.00
37408;DHT22;24866;50.248;8.252;2023-03-12T05:43:51;0.60;1.00
37408;DHT22;24866;50.248;8.252;2023-03-12T05:46:23;0.50;1.00
37408;DHT22;24866;50.248;8.252;2023-03-12T05:48:53;0.50;1.00
37408;DHT22;24866;50.248;8.252;2023-03-12T05:51:23;0.50;1.00
37408;DHT22;24866;50.248;8.252;2023-03-12T05:53:53;0.50;1.00
37408;DHT22;24866;50.248;8.252;2023-03-12T05:56:23;0.60;1.00
37408;DHT22;24866;50.248;8.252;2023-03-12T05:58:55;0.60;1.00
37408;DHT22;24866;50.248;8.252;2023-03-12T06:01:28;0.70;1.00
37408;DHT22;24866;50.248;8.252;2023-03-12T06:03:58;0.70;1.00
37408;DHT22;24866;50.248;8.252;2023-03-12T06:06:29;0.60;1.00
37408;DHT22;24866;50.248;8.252;2023-03-12T06:08:59;0.70;1.00
37408;DHT22;24866;50.248;8.252;2023-03-12T06:11:29;0.60;5.60
37408;DHT22;24866;50.248;8.252;2023-03-12T06:14:02;0.60;73.20
37408;DHT22;24866;50.248;8.252;2023-03-12T06:16:32;0.60;99.90
37408;DHT22;24866;50.248;8.252;2023-03-12T06:19:03;0.60;99.90
37408;DHT22;24866;50.248;8.252;2023-03-12T06:21:35;0.50;99.90
37408;DHT22;24866;50.248;8.252;2023-03-12T06:24:06;0.50;99.90
37408;DHT22;24866;50.248;8.252;2023-03-12T06:26:36;0.50;99.90
37408;DHT22;24866;50.248;8.252;2023-03-12T06:29:08;0.50;1.00
37408;DHT22;24866;50.248;8.252;2023-03-12T06:31:38;0.50;1.00
37408;DHT22;24866;50.248;8.252;2023-03-12T06:34:09;0.50;1.00
37408;DHT22;24866;50.248;8.252;2023-03-12T06:36:40;0.40;99.90
37408;DHT22;24866;50.248;8.252;2023-03-12T06:39:11;0.40;1.00
37408;DHT22;24866;50.248;8.252;2023-03-12T06:41:41;0.40;1.00
37408;DHT22;24866;50.248;8.252;2023-03-12T06:44:12;0.30;99.90
37408;DHT22;24866;50.248;8.252;2023-03-12T06:46:42;0.20;1.00
37408;DHT22;24866;50.248;8.252;2023-03-12T06:49:13;0.20;99.90
37408;DHT22;24866;50.248;8.252;2023-03-12T06:51:43;0.20;1.00
37408;DHT22;24866;50.248;8.252;2023-03-12T06:54:14;0.30;38.30
37408;DHT22;24866;50.248;8.252;2023-03-12T06:56:44;0.30;99.90
37408;DHT22;24866;50.248;8.252;2023-03-12T06:59:16;0.30;99.90
37408;DHT22;24866;50.248;8.252;2023-03-12T07:01:49;0.30;1.00
37408;DHT22;24866;50.248;8.252;2023-03-12T07:04:19;0.40;1.00
37408;DHT22;24866;50.248;8.252;2023-03-12T07:06:49;0.40;1.00
37408;DHT22;24866;50.248;8.252;2023-03-12T07:09:19;0.40;1.00
37408;DHT22;24866;50.248;8.252;2023-03-12T07:11:49;0.40;1.00
37408;DHT22;24866;50.248;8.252;2023-03-12T07:14:23;0.50;1.00
37408;DHT22;24866;50.248;8.252;2023-03-12T07:16:54;0.50;1.00
37408;DHT22;24866;50.248;8.252;2023-03-12T07:19:25;0.40;1.00
37408;DHT22;24866;50.248;8.252;2023-03-12T07:21:56;0.30;1.00
37408;DHT22;24866;50.248;8.252;2023-03-12T07:24:26;0.30;99.90
37408;DHT22;24866;50.248;8.252;2023-03-12T07:26:56;0.20;99.90
37408;DHT22;24866;50.248;8.252;2023-03-12T07:29:27;0.20;99.90
37408;DHT22;24866;50.248;8.252;2023-03-12T07:31:57;0.10;99.90
37408;DHT22;24866;50.248;8.252;2023-03-12T07:34:29;0.20;99.90
37408;DHT22;24866;50.248;8.252;2023-03-12T07:37:02;0.20;99.90
37408;DHT22;24866;50.248;8.252;2023-03-12T07:39:32;0.30;99.90
37408;DHT22;24866;50.248;8.252;2023-03-12T07:42:02;0.20;99.90
37408;DHT22;24866;50.248;8.252;2023-03-12T07:44:34;0.10;99.90
37408;DHT22;24866;50.248;8.252;2023-03-12T07:47:04;0.10;99.90
37408;DHT22;24866;50.248;8.252;2023-03-12T07:49:34;0.00;99.90
37408;DHT22;24866;50.248;8.252;2023-03-12T07:52:04;0.00;99.90
37408;DHT22;24866;50.248;8.252;2023-03-12T07:54:37;0.00;99.90
37408;DHT22;24866;50.248;8.252;2023-03-12T07:57:07;0.10;99.90
37408;DHT22;24866;50.248;8.252;2023-03-12T07:59:38;0.10;99.90
37408;DHT22;24866;50.248;8.252;2023-03-12T08:02:09;0.20;99.90
37408;DHT22;24866;50.248;8.252;2023-03-12T08:04:39;0.30;99.90
37408;DHT22;24866;50.248;8.252;2023-03-12T08:07:09;0.30;99.90
37408;DHT22;24866;50.248;8.252;2023-03-12T08:09:40;0.30;99.90
37408;DHT22;24866;50.248;8.252;2023-03-12T08:12:10;0.20;99.90
37408;DHT22;24866;50.248;8.252;2023-03-12T08:14:41;0.20;99.90
37408;DHT22;24866;50.248;8.252;2023-03-12T08:17:11;0.20;99.90
37408;DHT22;24866;50.248;8.252;2023-03-12T08:19:41;0.20;99.90
37408;DHT22;24866;50.248;8.252;2023-03-12T08:22:11;0.20;99.90
37408;DHT22;24866;50.248;8.252;2023-03-12T08:24:41;0.20;99.90
37408;DHT22;24866;50.248;8.252;2023-03-12T08:27:11;0.30;99.90
37408;DHT22;24866;50.248;8.252;2023-03-12T08:29:42;0.30;99.90
37408;DHT22;24866;50.248;8.252;2023-03-12T08:32:12;0.30;99.90
37408;DHT22;24866;50.248;8.252;2023-03-12T08:34:42;0.30;99.90
37408;DHT22;24866;50.248;8.252;2023-03-12T08:37:15;0.30;99.90
37408;DHT22;24866;50.248;8.252;2023-03-12T08:39:45;0.40;99.90
37408;DHT22;24866;50.248;8.252;2023-03-12T08:42:15;0.50;99.90
37408;DHT22;24866;50.248;8.252;2023-03-12T08:44:46;0.50;99.90
37408;DHT22;24866;50.248;8.252;2023-03-12T08:47:16;0.70;99.90
37408;DHT22;24866;50.248;8.252;2023-03-12T08:49:46;0.80;99.90
37408;DHT22;24866;50.248;8.252;2023-03-12T08:52:16;0.80;99.90
37408;DHT22;24866;50.248;8.252;2023-03-12T08:54:46;0.80;99.90
37408;DHT22;24866;50.248;8.252;2023-03-12T08:57:16;0.80;99.90
37408;DHT22;24866;50.248;8.252;2023-03-12T08:59:48;0.90;99.90
37408;DHT22;24866;50.248;8.252;2023-03-12T09:02:18;0.90;99.90
37408;DHT22;24866;50.248;8.252;2023-03-12T09:04:48;0.90;99.90
37408;DHT22;24866;50.248;8.252;2023-03-12T09:07:18;1.00;99.90
37408;DHT22;24866;50.248;8.252;2023-03-12T09:09:49;1.10;99.90
37408;DHT22;24866;50.248;8.252;2023-03-12T09:12:20;1.20;99.90
37408;DHT22;24866;50.248;8.252;2023-03-12T09:14:53;1.30;99.90
37408;DHT22;24866;50.248;8.252;2023-03-12T09:17:23;1.30;99.90
37408;DHT22;24866;50.248;8.252;2023-03-12T09:19:54;1.20;99.90
37408;DHT22;24866;50.248;8.252;2023-03-12T09:22:24;1.30;99.90
37408;DHT22;24866;50.248;8.252;2023-03-12T09:24:54;1.50;99.90
37408;DHT22;24866;50.248;8.252;2023-03-12T09:27:24;1.60;99.90
37408;DHT22;24866;50.248;8.252;2023-03-12T09:29:55;1.50;99.90
37408;DHT22;24866;50.248;8.252;2023-03-12T09:32:25;1.50;99.90
37408;DHT22;24866;50.248;8.252;2023-03-12T09:34:55;1.50;99.90
37408;DHT22;24866;50.248;8.252;2023-03-12T09:37:25;1.60;99.90
37408;DHT22;24866;50.248;8.252;2023-03-12T09:39:55;1.60;99.90
37408;DHT22;24866;50.248;8.252;2023-03-12T09:42:38;1.50;99.90
37408;DHT22;24866;50.248;8.252;2023-03-12T09:45:16;1.50;99.90
37408;DHT22;24866;50.248;8.252;2023-03-12T09:47:50;1.50;99.90
37408;DHT22;24866;50.248;8.252;2023-03-12T09:50:26;1.60;99.90
37408;DHT22;24866;50.248;8.252;2023-03-12T09:52:59;1.60;99.90
37408;DHT22;24866;50.248;8.252;2023-03-12T09:55:34;1.60;99.90
37408;DHT22;24866;50.248;8.252;2023-03-12T09:58:12;1.70;99.90
37408;DHT22;24866;50.248;8.252;2023-03-12T10:00:43;1.60;99.90
37408;DHT22;24866;50.248;8.252;2023-03-12T10:03:46;1.60;99.90
37408;DHT22;24866;50.248;8.252;2023-03-12T10:06:21;1.50;99.90
37408;DHT22;24866;50.248;8.252;2023-03-12T10:09:02;1.40;99.90
37408;DHT22;24866;50.248;8.252;2023-03-12T10:11:43;1.40;99.90
37408;DHT22;24866;50.248;8.252;2023-03-12T10:14:28;1.30;99.90
37408;DHT22;24866;50.248;8.252;2023-03-12T10:17:05;1.30;99.90
37408;DHT22;24866;50.248;8.252;2023-03-12T10:19:50;1.20;99.90
37408;DHT22;24866;50.248;8.252;2023-03-12T10:22:32;1.30;99.90
37408;DHT22;24866;50.248;8.252;2023-03-12T10:25:15;1.30;99.90
37408;DHT22;24866;50.248;8.252;2023-03-12T10:27:49;1.30;99.90
37408;DHT22;24866;50.248;8.252;2023-03-12T10:30:21;1.40;99.90
37408;DHT22;24866;50.248;8.252;2023-03-12T10:32:57;1.50;99.90
37408;DHT22;24866;50.248;8.252;2023-03-12T10:35:28;1.40;99.90
37408;DHT22;24866;50.248;8.252;2023-03-12T10:38:00;1.50;99.90
37408;DHT22;24866;50.248;8.252;2023-03-12T10:40:32;1.70;99.90
37408;DHT22;24866;50.248;8.252;2023-03-12T10:43:03;1.90;99.90
37408;DHT22;24866;50.248;8.252;2023-03-12T10:45:38;1.90;99.90
37408;DHT22;24866;50.248;8.252;2023-03-12T10:48:18;2.00;99.90
37408;DHT22;24866;50.248;8.252;2023-03-12T10:51:00;2.30;99.90
37408;DHT22;24866;50.248;8.252;2023-03-12T10:53:32;2.70;99.90
37408;DHT22;24866;50.248;8.252;2023-03-12T10:56:06;2.80;99.90
37408;DHT22;24866;50.248;8.252;2023-03-12T10:58:38;2.90;99.90
37408;DHT22;24866;50.248;8.252;2023-03-12T11:01:18;3.00;99.90
37408;DHT22;24866;50.248;8.252;2023-03-12T11:03:51;3.10;99.90
37408;DHT22;24866;50.248;8.252;2023-03-12T11:06:23;3.30;99.90
37408;DHT22;24866;50.248;8.252;2023-03-12T11:09:04;3.60;99.90
37408;DHT22;24866;50.248;8.252;2023-03-12T11:11:35;3.60;99.90
37408;DHT22;24866;50.248;8.252;2023-03-12T11:14:12;3.70;99.90
37408;DHT22;24866;50.248;8.252;2023-03-12T11:16:44;3.70;99.90
37408;DHT22;24866;50.248;8.252;2023-03-12T11:19:26;3.70;99.90
37408;DHT22;24866;50.248;8.252;2023-03-12T11:21:58;3.80;99.90
37408;DHT22;24866;50.248;8.252;2023-03-12T11:24:29;3.90;99.90
37408;DHT22;24866;50.248;8.252;2023-03-12T11:27:02;3.90;99.90
37408;DHT22;24866;50.248;8.252;2023-03-12T11:29:36;4.20;99.90
37408;DHT22;24866;50.248;8.252;2023-03-12T11:32:14;4.30;99.90
37408;DHT22;24866;50.248;8.252;2023-03-12T11:34:47;4.30;99.90
37408;DHT22;24866;50.248;8.252;2023-03-12T11:37:20;4.40;99.90
37408;DHT22;24866;50.248;8.252;2023-03-12T11:40:12;4.50;99.90
37408;DHT22;24866;50.248;8.252;2023-03-12T11:42:55;4.60;99.90
37408;DHT22;24866;50.248;8.252;2023-03-12T11:45:39;4.90;99.90
37408;DHT22;24866;50.248;8.252;2023-03-12T11:48:18;5.00;99.90
37408;DHT22;24866;50.248;8.252;2023-03-12T11:51:04;5.30;99.90
37408;DHT22;24866;50.248;8.252;2023-03-12T11:53:52;5.60;99.90
37408;DHT22;24866;50.248;8.252;2023-03-12T11:56:27;5.80;99.90
37408;DHT22;24866;50.248;8.252;2023-03-12T11:59:17;5.70;99.90
37408;DHT22;24866;50.248;8.252;2023-03-12T12:01:59;5.60;99.90
37408;DHT22;24866;50.248;8.252;2023-03-12T12:07:57;5.60;99.90
37408;DHT22;24866;50.248;8.252;2023-03-12T12:10:36;5.60;99.90
37408;DHT22;24866;50.248;8.252;2023-03-12T12:13:14;5.60;99.90
37408;DHT22;24866;50.248;8.252;2023-03-12T12:15:53;5.70;99.90
37408;DHT22;24866;50.248;8.252;2023-03-12T12:18:41;5.80;99.90
37408;DHT22;24866;50.248;8.252;2023-03-12T12:21:31;5.90;99.90
37408;DHT22;24866;50.248;8.252;2023-03-12T12:24:16;5.90;99.90
37408;DHT22;24866;50.248;8.252;2023-03-12T12:26:53;6.00;99.90
37408;DHT22;24866;50.248;8.252;2023-03-12T12:29:36;6.70;99.90
37408;DHT22;24866;50.248;8.252;2023-03-12T12:32:14;6.70;99.90
37408;DHT22;24866;50.248;8.252;2023-03-12T12:35:00;7.30;99.90
37408;DHT22;24866;50.248;8.252;2023-03-12T12:37:45;7.70;99.90
37408;DHT22;24866;50.248;8.252;2023-03-12T12:40:22;8.10;99.90
37408;DHT22;24866;50.248;8.252;2023-03-12T12:43:18;8.70;99.90
37408;DHT22;24866;50.248;8.252;2023-03-12T12:45:51;9.00;99.90
37408;DHT22;24866;50.248;8.252;2023-03-12T12:48:25;9.00;99.90
37408;DHT22;24866;50.248;8.252;2023-03-12T12:50:57;9.00;99.90
37408;DHT22;24866;50.248;8.252;2023-03-12T12:53:31;9.00;99.90
37408;DHT22;24866;50.248;8.252;2023-03-12T12:56:13;9.00;99.90
37408;DHT22;24866;50.248;8.252;2023-03-12T12:58:58;8.90;99.90
37408;DHT22;24866;50.248;8.252;2023-03-12T13:01:31;9.00;99.90
37408;DHT22;24866;50.248;8.252;2023-03-12T13:04:08;8.90;99.90
37408;DHT22;24866;50.248;8.252;2023-03-12T13:07:00;8.80;99.90
37408;DHT22;24866;50.248;8.252;2023-03-12T13:09:39;8.90;99.90
37408;DHT22;24866;50.248;8.252;2023-03-12T13:12:18;8.90;99.90
37408;DHT22;24866;50.248;8.252;2023-03-12T13:14:49;9.00;99.90
37408;DHT22;24866;50.248;8.252;2023-03-12T13:17:26;9.00;99.90
37408;DHT22;24866;50.248;8.252;2023-03-12T13:20:10;9.00;99.90
37408;DHT22;24866;50.248;8.252;2023-03-12T13:22:54;9.10;99.90
37408;DHT22;24866;50.248;8.252;2023-03-12T13:25:45;9.10;99.90
37408;DHT22;24866;50.248;8.252;2023-03-12T13:28:34;9.10;99.90
37408;DHT22;24866;50.248;8.252;2023-03-12T13:31:35;9.10;99.90
37408;DHT22;24866;50.248;8.252;2023-03-12T13:34:29;9.10;99.90
37408;DHT22;24866;50.248;8.252;2023-03-12T13:37:00;9.10;99.90
37408;DHT22;24866;50.248;8.252;2023-03-12T13:39:32;9.10;99.90
37408;DHT22;24866;50.248;8.252;2023-03-12T13:42:31;9.10;99.90
37408;DHT22;24866;50.248;8.252;2023-03-12T13:45:24;9.10;99.90
37408;DHT22;24866;50.248;8.252;2023-03-12T13:47:59;9.20;99.90
37408;DHT22;24866;50.248;8.252;2023-03-12T13:50:31;9.20;99.90
37408;DHT22;24866;50.248;8.252;2023-03-12T13:53:03;9.10;99.90
37408;DHT22;24866;50.248;8.252;2023-03-12T13:55:36;9.10;99.90
37408;DHT22;24866;50.248;8.252;2023-03-12T13:58:08;9.00;99.90
37408;DHT22;24866;50.248;8.252;2023-03-12T14:00:49;9.00;99.90
37408;DHT22;24866;50.248;8.252;2023-03-12T14:03:26;8.90;99.90
37408;DHT22;24866;50.248;8.252;2023-03-12T14:06:04;9.00;99.90
37408;DHT22;24866;50.248;8.252;2023-03-12T14:08:50;9.00;99.90
37408;DHT22;24866;50.248;8.252;2023-03-12T14:11:31;9.00;99.90
37408;DHT22;24866;50.248;8.252;2023-03-12T14:17:03;9.00;99.90
37408;DHT22;24866;50.248;8.252;2023-03-12T14:19:44;9.00;99.90
37408;DHT22;24866;50.248;8.252;2023-03-12T14:22:15;9.00;99.90
37408;DHT22;24866;50.248;8.252;2023-03-12T14:24:53;9.10;99.90
37408;DHT22;24866;50.248;8.252;2023-03-12T14:27:27;9.10;99.90
37408;DHT22;24866;50.248;8.252;2023-03-12T14:30:03;9.10;99.90
37408;DHT22;24866;50.248;8.252;2023-03-12T14:32:38;9.20;99.90
37408;DHT22;24866;50.248;8.252;2023-03-12T14:35:16;9.30;99.90
37408;DHT22;24866;50.248;8.252;2023-03-12T14:37:51;9.30;99.90
37408;DHT22;24866;50.248;8.252;2023-03-12T14:40:28;9.30;99.90
37408;DHT22;24866;50.248;8.252;2023-03-12T14:42:59;9.30;99.90
37408;DHT22;24866;50.248;8.252;2023-03-12T14:45:29;9.40;99.90
37408;DHT22;24866;50.248;8.252;2023-03-12T14:48:00;9.50;99.90
37408;DHT22;24866;50.248;8.252;2023-03-12T14:50:37;9.70;99.90
37408;DHT22;24866;50.248;8.252;2023-03-12T14:53:13;9.70;99.90
37408;DHT22;24866;50.248;8.252;2023-03-12T14:55:46;9.80;99.90
37408;DHT22;24866;50.248;8.252;2023-03-12T14:58:17;9.90;99.90
37408;DHT22;24866;50.248;8.252;2023-03-12T15:00:54;10.00;99.90
37408;DHT22;24866;50.248;8.252;2023-03-12T15:03:29;10.10;99.90
37408;DHT22;24866;50.248;8.252;2023-03-12T15:06:00;10.10;99.90
37408;DHT22;24866;50.248;8.252;2023-03-12T15:08:33;10.20;99.90
37408;DHT22;24866;50.248;8.252;2023-03-12T15:11:09;10.20;99.90
37408;DHT22;24866;50.248;8.252;2023-03-12T15:13:40;10.30;99.90
37408;DHT22;24866;50.248;8.252;2023-03-12T15:16:10;10.30;99.90
37408;DHT22;24866;50.248;8.252;2023-03-12T15:18:42;10.40;99.90
37408;DHT22;24866;50.248;8.252;2023-03-12T15:21:12;10.40;99.90
37408;DHT22;24866;50.248;8.252;2023-03-12T15:23:45;10.40;99.90
37408;DHT22;24866;50.248;8.252;2023-03-12T15:26:26;10.40;99.90
37408;DHT22;24866;50.248;8.252;2023-03-12T15:28:58;10.50;99.90
37408;DHT22;24866;50.248;8.252;2023-03-12T15:31:40;10.40;99.90
37408;DHT22;24866;50.248;8.252;2023-03-12T15:34:14;10.40;99.90
37408;DHT22;24866;50.248;8.252;2023-03-12T15:36:54;10.50;99.90
37408;DHT22;24866;50.248;8.252;2023-03-12T15:39:26;10.50;99.90
37408;DHT22;24866;50.248;8.252;2023-03-12T15:41:59;10.50;99.90
37408;DHT22;24866;50.248;8.252;2023-03-12T15:44:41;10.50;99.90
37408;DHT22;24866;50.248;8.252;2023-03-12T15:47:15;10.50;99.90
37408;DHT22;24866;50.248;8.252;2023-03-12T15:49:50;10.50;99.90
37408;DHT22;24866;50.248;8.252;2023-03-12T15:52:26;10.50;99.90
37408;DHT22;24866;50.248;8.252;2023-03-12T15:55:05;10.50;99.90
37408;DHT22;24866;50.248;8.252;2023-03-12T15:57:45;10.50;99.90
37408;DHT22;24866;50.248;8.252;2023-03-12T16:00:20;10.50;99.90
37408;DHT22;24866;50.248;8.252;2023-03-12T16:02:54;10.50;99.90
37408;DHT22;24866;50.248;8.252;2023-03-12T16:05:28;10.50;99.90
37408;DHT22;24866;50.248;8.252;2023-03-12T16:08:00;10.60;99.90
37408;DHT22;24866;50.248;8.252;2023-03-12T16:10:33;10.60;99.90
37408;DHT22;24866;50.248;8.252;2023-03-12T16:13:06;10.50;99.90
37408;DHT22;24866;50.248;8.252;2023-03-12T16:15:37;10.60;99.90
37408;DHT22;24866;50.248;8.252;2023-03-12T16:18:12;10.60;99.90
37408;DHT22;24866;50.248;8.252;2023-03-12T16:20:44;10.60;99.90
37408;DHT22;24866;50.248;8.252;2023-03-12T16:23:15;10.60;99.90
37408;DHT22;24866;50.248;8.252;2023-03-12T16:25:49;10.60;99.90
37408;DHT22;24866;50.248;8.252;2023-03-12T16:28:20;10.70;99.90
37408;DHT22;24866;50.248;8.252;2023-03-12T16:30:52;10.60;99.90